Latest Weather Observations for Wagga Wagga

IDN60801

Issued at 10:22 am EDT Wednesday 16 January 2019 (issued every 10 minutes, with the page automatically refreshed every 10 minutes)

About weather observations | Map of weather stations | Latest weather observations for NSW | Other Formats
Station Details ID: 072150 Name: WAGGA WAGGA AMO Lat: -35.16 Lon: 147.46 Height: 212.0 m
Data from the previous 72 hours. | See also: Recent months at Wagga Wagga
Date/Time
EDT
Temp
°C
App
Temp
°C
Dew
Point
°C
Rel
Hum
%
Delta-T
°C
Wind Press
QNH
hPa
Press
MSL
hPa
Rain since
9am
mm
Dir  Spd
km/h
Gust
km/h
Spd
kts
Gust
kts
16/10:00am 35.1 33.9 11.5 24 14.1 ENE 9 13 5 7 1010.7 1009.6 0.0
16/09:30am 33.6 31.6 10.2 24 13.6 E 11 13 6 7 1010.8 1009.7 0.0
16/09:00am 32.0 29.9 11.2 28 12.2 ENE 13 17 7 9 1010.8 1009.7 0.0
16/08:30am 30.4 28.7 12.3 33 10.7 E 13 17 7 9 1010.7 1009.6 0.0
16/08:00am 29.3 27.9 10.9 32 10.6 ENE 9 11 5 6 1010.4 1009.3 0.0
16/07:30am 27.8 26.4 12.2 38 9.1 ESE 11 13 6 7 1009.9 1008.8 0.0
16/07:00am 27.0 25.5 10.7 36 9.3 E 9 11 5 6 1009.5 1008.4 0.0
16/06:30am 24.8 24.3 10.7 41 7.9 E 4 9 2 5 1009.0 1008.0 0.0
16/06:00am 24.7 24.8 10.2 40 8.1 CALM 0 0 0 0 1008.8 1007.8 0.0
16/05:30am 24.9 23.6 9.2 37 8.6 SE 6 9 3 5 1008.6 1007.6 0.0
16/05:00am 28.4 26.2 9.2 30 10.7 E 11 13 6 7 1008.5 1007.5 0.0
16/04:30am 28.2 26.0 9.5 31 10.5 E 11 13 6 7 1008.4 1007.4 0.0
16/04:00am 28.8 26.1 9.0 29 11.1 ENE 13 15 7 8 1008.3 1007.3 0.0
16/03:30am 29.9 27.8 8.3 26 12.0 E 9 11 5 6 1008.2 1007.2 0.0
16/03:00am 29.3 27.0 8.9 28 11.4 E 11 15 6 8 1008.2 1007.2 0.0
16/02:30am 29.2 27.2 8.8 28 11.4 SSW 9 11 5 6 1008.4 1007.4 0.0
16/02:00am 29.3 26.5 8.4 27 11.6 S 13 15 7 8 1008.6 1007.6 0.0
16/01:30am 32.3 29.7 7.9 22 13.6 W 11 15 6 8 1008.6 1007.6 0.0
16/01:00am 35.5 32.3 6.7 17 16.0 NNW 13 17 7 9 1008.7 1007.7 0.0
16/12:30am 36.0 31.5 6.2 16 16.5 NNW 19 26 10 14 1008.6 1007.6 0.0
16/12:00am 36.3 31.5 5.5 15 16.9 NNW 20 30 11 16 1008.3 1007.3 0.0
 
Date/Time
EDT
Temp
°C
App
Temp
°C
Dew
Point
°C
Rel
Hum
%
Delta-T
°C
Wind Press
QNH
hPa
Press
MSL
hPa
Rain since
9am
mm
Dir  Spd
km/h
Gust
km/h
Spd
kts
Gust
kts
15/11:38pm 36.8 30.5 5.9 15 17.1 NE 28 46 15 25 1008.2 1007.2 0.0
15/11:30pm 37.0 29.8 6.1 15 17.1 NNE 33 50 18 27 1008.0 1007.0 0.0
15/11:14pm 35.5 30.9 8.3 19 15.5 NNE 22 46 12 25 1008.0 1007.0 0.0
15/11:11pm 35.7 32.1 8.5 19 15.6 NNW 17 33 9 18 1008.5 1007.5 0.0
15/11:00pm 34.2 30.6 10.7 24 13.8 WSW 20 32 11 17 1010.6 1009.5 0.0
15/10:30pm 33.8 30.5 11.0 25 13.4 W 19 28 10 15 1010.2 1009.1 0.0
15/10:00pm 34.0 28.1 10.6 24 13.7 WSW 32 41 17 22 1009.3 1008.2 0.0
15/09:39pm 34.9 27.9 10.0 22 14.5 WSW 37 56 20 30 1009.1 1008.1 0.0
15/09:30pm 35.6 27.1 9.2 20 15.3 WSW 44 57 24 31 1009.0 1008.0 0.0
15/09:22pm 36.8 26.4 7.8 17 16.5 W 52 70 28 38 1008.9 1007.9 0.0
15/09:04pm 37.4 28.6 7.3 16 17.0 WSW 43 67 23 36 1008.8 1007.8 0.0
15/09:00pm 39.1 31.1 1.9 10 19.6 SW 33 59 18 32 1008.3 1007.3 0.0
15/08:58pm 38.9 32.3 1.8 10 19.5 SW 26 54 14 29 1008.1 1007.1 0.0
15/08:30pm 36.6 33.6 7.6 17 16.4 WNW 13 30 7 16 1008.2 1007.2 0.0
15/08:00pm 37.9 35.5 6.8 15 17.6 W 9 15 5 8 1006.9 1005.8 0.0
15/07:36pm 38.1 30.9 4.9 13 18.2 SW 32 50 17 27 1006.8 1005.7 0.0
15/07:30pm 37.6 30.4 7.5 16 17.1 SW 35 50 19 27 1006.8 1005.7 0.0
15/07:16pm 38.9 35.3 6.6 14 18.2 SSW 15 48 8 26 1006.8 1005.7 0.0
15/07:00pm 39.2 35.8 5.7 13 18.7 SSW 13 15 7 8 1006.4 1005.3 0.0
15/06:30pm 42.2 37.3 4.3 10 21.0 WSW 19 22 10 12 1006.2 1005.1 0.0
15/06:00pm 42.8 39.1 4.7 10 21.3 W 13 22 7 12 1006.3 1005.2 0.0
15/05:30pm 42.5 36.3 4.5 10 21.1 SW 26 33 14 18 1006.6 1005.5 0.0
15/05:00pm 43.1 36.0 3.4 9 21.8 WSW 30 41 16 22 1006.9 1005.8 0.0
15/04:30pm 42.7 37.4 3.1 9 21.6 W 20 33 11 18 1007.2 1006.1 0.0
15/04:00pm 42.2 35.2 4.3 10 21.0 W 30 41 16 22 1007.6 1006.6 0.0
15/03:30pm 42.4 35.9 2.9 9 21.5 WSW 26 44 14 24 1007.9 1006.9 0.0
15/03:00pm 42.2 34.7 4.3 10 21.0 W 33 46 18 25 1008.4 1007.4 0.0
15/02:46pm 41.6 34.9 3.8 10 20.7 W 28 46 15 25 1008.4 1007.4 0.0
15/02:30pm 42.5 37.1 4.5 10 21.1 WSW 22 32 12 17 1008.6 1007.6 0.0
15/02:00pm 41.9 34.6 2.6 9 21.2 W 30 44 16 24 1008.9 1007.9 0.0
15/01:42pm 42.1 35.5 4.2 10 20.9 W 28 50 15 27 1009.1 1008.1 0.0
15/01:30pm 41.8 35.9 4.0 10 20.8 WSW 24 46 13 25 1009.4 1008.3 0.0
15/01:16pm 41.2 34.1 3.5 10 20.5 WNW 30 48 16 26 1009.7 1008.6 0.0
15/01:00pm 41.5 34.6 2.3 9 21.0 W 28 39 15 21 1009.8 1008.7 0.0
15/12:30pm 40.5 36.9 6.7 13 19.2 W 15 30 8 16 1010.3 1009.2 0.0
15/12:00pm 38.8 34.6 7.5 15 17.9 WNW 19 30 10 16 1010.8 1009.7 0.0
15/11:30am 38.1 35.2 9.6 18 16.7 WNW 15 28 8 15 1011.0 1009.9 0.0
15/11:00am 36.7 35.3 10.8 21 15.4 WNW 9 19 5 10 1011.3 1010.2 0.0
15/10:30am 35.1 33.5 11.5 24 14.1 W 11 15 6 8 1011.6 1010.6 0.0
15/10:00am 34.4 33.3 12.1 26 13.4 NNW 9 15 5 8 1011.8 1010.8 0.0
15/09:30am 32.8 31.5 11.3 27 12.7 NW 9 13 5 7 1011.9 1010.9 0.0
15/09:00am 31.7 30.6 12.0 30 11.7 NE 9 13 5 7 1011.9 1010.9 0.0
15/08:30am 30.9 30.0 13.7 35 10.4 NE 11 13 6 7 1011.9 1010.9 0.0
15/08:00am 29.6 28.6 13.4 37 9.7 ENE 11 15 6 8 1011.6 1010.6 0.0
15/07:30am 28.3 27.3 13.4 40 8.9 ENE 11 13 6 7 1011.4 1010.3 0.0
15/07:00am 27.4 25.7 12.6 40 8.7 E 13 15 7 8 1010.8 1009.7 0.0
15/06:30am 26.5 24.4 12.5 41 8.2 E 15 15 8 8 1010.6 1009.5 0.0
15/06:00am 26.5 25.1 12.2 41 8.3 E 11 13 6 7 1010.2 1009.1 0.0
15/05:30am 26.7 24.9 12.0 40 8.5 ENE 13 15 7 8 1009.8 1008.7 0.0
15/05:00am 26.9 25.9 12.2 40 8.6 ENE 9 11 5 6 1009.7 1008.6 0.0
15/04:30am 26.8 25.7 12.1 40 8.6 E 9 11 5 6 1009.5 1008.4 0.0
15/04:00am 27.8 26.7 11.8 37 9.3 ENE 9 13 5 7 1009.5 1008.4 0.0
15/03:30am 27.7 28.2 11.7 37 9.3 CALM 0 0 0 0 1009.5 1008.4 0.0
15/03:00am 28.5 27.7 11.6 35 9.8 N 7 9 4 5 1009.5 1008.4 0.0
15/02:30am 28.9 28.0 11.5 34 10.1 N 7 11 4 6 1009.8 1008.7 0.0
15/02:00am 29.9 28.5 10.9 31 11.0 NNW 9 11 5 6 1010.0 1008.9 0.0
15/01:30am 30.2 28.4 10.7 30 11.3 NNW 11 15 6 8 1009.9 1008.8 0.0
15/01:00am 31.2 29.7 10.5 28 12.0 N 9 13 5 7 1009.8 1008.7 0.0
15/12:30am 32.0 29.6 10.1 26 12.6 N 13 17 7 9 1009.7 1008.6 0.0
15/12:00am 32.9 30.9 10.3 25 13.1 N 11 15 6 8 1009.8 1008.7 0.0
 
Date/Time
EDT
Temp
°C
App
Temp
°C
Dew
Point
°C
Rel
Hum
%
Delta-T
°C
Wind Press
QNH
hPa
Press
MSL
hPa
Rain since
9am
mm
Dir  Spd
km/h
Gust
km/h
Spd
kts
Gust
kts
14/11:30pm 33.8 30.9 9.8 23 13.9 NNW 15 20 8 11 1009.6 1008.5 0.0
14/11:00pm 32.9 31.5 10.9 26 12.9 NNW 9 15 5 8 1009.5 1008.4 0.0
14/10:30pm 33.6 33.3 10.2 24 13.6 SE 2 6 1 3 1009.1 1008.1 0.0
14/10:00pm 35.2 33.6 10.3 22 14.6 N 9 13 5 7 1008.9 1007.9 0.0
14/09:30pm 35.9 34.5 9.4 20 15.4 E 7 11 4 6 1008.7 1007.7 0.0
14/09:00pm 36.5 34.4 6.6 16 16.7 WSW 7 9 4 5 1008.4 1007.4 0.0
14/08:30pm 38.2 34.8 6.0 14 17.9 W 13 19 7 10 1008.0 1007.0 0.0
14/08:10pm 39.8 34.1 5.1 12 19.2 W 24 48 13 26 1007.8 1006.8 0.0
14/08:07pm 39.9 35.2 5.1 12 19.3 W 19 48 10 26 1007.7 1006.7 0.0
14/08:00pm 38.5 35.2 6.3 14 18.1 WNW 13 17 7 9 1007.8 1006.8 0.0
14/07:30pm 39.4 35.6 5.9 13 18.7 WNW 15 20 8 11 1007.6 1006.6 0.0
14/07:00pm 41.2 36.3 4.9 11 20.2 W 20 28 11 15 1007.4 1006.4 0.0
14/06:30pm 41.4 36.0 6.3 12 19.9 W 24 30 13 16 1007.4 1006.4 0.0
14/06:00pm 41.4 37.5 8.5 14 19.3 W 19 28 10 15 1007.5 1006.5 0.0
14/05:30pm 41.0 35.3 8.2 14 19.1 W 28 39 15 21 1007.9 1006.9 0.0
14/05:00pm 41.2 35.9 8.4 14 19.2 WNW 26 35 14 19 1008.3 1007.3 0.0
14/04:30pm 41.2 35.5 8.4 14 19.2 WNW 28 39 15 21 1008.8 1007.8 0.0
14/04:00pm 40.7 35.2 9.0 15 18.7 W 28 41 15 22 1009.4 1008.3 0.0
14/03:30pm 40.4 36.7 11.5 18 17.6 W 22 35 12 19 1009.7 1008.6 0.0
14/03:00pm 40.2 34.8 9.6 16 18.1 WNW 28 41 15 22 1010.3 1009.2 0.0
14/02:30pm 39.9 35.9 11.9 19 17.1 NW 24 41 13 22 1010.7 1009.6 0.0
14/02:26pm 39.9 36.4 10.2 17 17.7 NNW 19 41 10 22 1010.9 1009.8 0.0
14/02:00pm 39.2 37.1 11.3 19 16.9 N 13 19 7 10 1011.4 1010.3 0.0
14/01:30pm 37.7 36.0 13.7 24 14.9 NW 15 24 8 13 1012.1 1011.1 0.0
14/01:00pm 36.7 35.2 15.2 27 13.6 NNE 17 28 9 15 1012.7 1011.7 0.0
14/12:30pm 35.8 34.2 15.0 29 13.1 N 17 26 9 14 1013.3 1012.3 0.0
14/12:00pm 35.0 32.9 15.3 30 12.4 NNE 20 28 11 15 1013.7 1012.7 0.0
14/11:30am 34.0 31.6 15.5 33 11.7 N 22 32 12 17 1014.3 1013.2 0.0
14/11:00am 32.7 30.6 15.2 34 10.9 NNE 20 32 11 17 1014.5 1013.4 0.0
14/10:30am 31.9 28.6 15.0 36 10.5 NNE 26 35 14 19 1014.6 1013.5 0.0
14/10:00am 31.0 27.9 14.6 37 10.1 NE 24 33 13 18 1014.8 1013.7 0.0
14/09:30am 29.5 27.6 15.2 41 8.8 NE 19 28 10 15 1015.0 1013.9 0.0
14/09:00am 27.0 25.2 16.0 51 6.8 ENE 20 28 11 15 1015.2 1014.1 0.0
14/08:30am 26.0 23.8 16.0 54 6.2 ENE 22 30 12 16 1015.4 1014.3 0.0
14/08:00am 24.9 22.6 15.8 57 5.6 ENE 22 32 12 17 1015.3 1014.2 0.0
14/07:30am 24.3 22.0 15.8 59 5.2 ENE 22 32 12 17 1015.2 1014.1 0.0
14/07:00am 23.5 21.6 15.8 62 4.7 E 20 30 11 16 1015.0 1013.9 0.0
14/06:30am 23.0 20.7 15.6 63 4.5 ENE 22 30 12 16 1014.5 1013.4 0.0
14/06:00am 23.0 19.5 15.6 63 4.5 ENE 28 37 15 20 1013.9 1012.9 0.0
14/05:30am 23.2 20.5 15.5 62 4.7 E 24 32 13 17 1013.9 1012.9 0.0
14/05:00am 23.3 19.8 15.4 61 4.8 E 28 33 15 18 1013.6 1012.6 0.0
14/04:30am 23.5 19.2 15.5 60 4.9 E 32 39 17 21 1013.5 1012.5 0.0
14/04:00am 23.5 19.0 15.5 60 4.9 ENE 33 43 18 23 1013.3 1012.3 0.0
14/03:30am 23.7 18.9 15.7 61 4.9 ENE 35 43 19 23 1013.5 1012.5 0.0
14/03:00am 23.8 19.9 15.6 60 5.0 E 30 37 16 20 1013.7 1012.7 0.0
14/02:30am 24.0 19.8 15.8 60 5.0 E 32 41 17 22 1014.0 1013.0 0.0
14/02:00am 24.1 19.9 15.6 59 5.2 ENE 32 41 17 22 1014.4 1013.3 0.0
14/01:30am 24.4 19.6 15.6 58 5.4 E 35 46 19 25 1014.6 1013.5 0.0
14/01:00am 24.6 21.1 15.5 57 5.5 E 28 39 15 21 1014.8 1013.7 0.0
14/12:30am 24.8 21.6 15.4 56 5.7 E 26 41 14 22 1014.9 1013.8 0.0
14/12:04am 25.1 21.6 15.4 55 5.9 E 28 48 15 26 1014.6 1013.5 0.0
14/12:00am 25.1 21.9 15.4 55 5.9 E 26 35 14 19 1014.6 1013.5 0.0
 
Date/Time
EDT
Temp
°C
App
Temp
°C
Dew
Point
°C
Rel
Hum
%
Delta-T
°C
Wind Press
QNH
hPa
Press
MSL
hPa
Rain since
9am
mm
Dir  Spd
km/h
Gust
km/h
Spd
kts
Gust
kts
13/11:30pm 25.6 21.7 15.6 54 6.1 E 30 39 16 21 1014.4 1013.3 0.0
13/11:00pm 26.2 20.6 15.6 52 6.5 ENE 39 52 21 28 1013.8 1012.8 0.0
13/10:30pm 27.0 22.8 15.7 50 7.0 ENE 32 43 17 23 1014.0 1013.0 0.0
13/10:00pm 28.3 25.1 16.2 47 7.6 E 28 39 15 21 1013.8 1012.8 0.0
13/09:30pm 29.4 26.7 16.6 46 8.1 E 26 32 14 17 1013.4 1012.4 0.0
13/09:00pm 30.6 26.4 16.2 41 9.1 ENE 33 43 18 23 1013.0 1012.0 0.0
13/08:30pm 32.2 27.8 15.7 37 10.4 ENE 33 46 18 25 1012.5 1011.5 0.0
13/08:00pm 33.5 29.2 15.5 34 11.3 ENE 32 41 17 22 1012.0 1011.0 0.0
13/07:30pm 34.7 30.3 15.1 31 12.3 NE 32 39 17 21 1011.6 1010.6 0.0
13/07:00pm 35.8 31.5 15.5 29 12.9 ENE 32 41 17 22 1011.5 1010.5 0.0
13/06:30pm 36.8 33.4 14.7 26 13.9 NE 26 39 14 21 1011.3 1010.2 0.0
13/06:00pm 37.7 33.4 15.5 27 14.2 ENE 32 43 17 23 1011.2 1010.1 0.0
13/05:30pm 37.1 32.5 15.0 27 14.0 NE 33 41 18 22 1011.1 1010.0 0.0
13/05:00pm 37.7 34.2 16.6 28 13.7 ENE 30 37 16 20 1011.4 1010.3 0.0
13/04:30pm 37.5 34.3 16.4 28 13.6 NE 28 39 15 21 1011.8 1010.8 0.0
13/04:00pm 37.2 33.8 16.7 29 13.3 ENE 30 41 16 22 1011.9 1010.9 0.0
13/03:30pm 37.0 33.5 16.5 29 13.2 ENE 30 41 16 22 1012.2 1011.2 0.0
13/03:00pm 37.2 33.3 15.6 27 13.8 ENE 30 39 16 21 1012.5 1011.5 0.0
13/02:30pm 37.3 34.1 16.3 29 13.5 NE 28 37 15 20 1013.0 1012.0 0.0
13/02:00pm 37.2 34.7 16.2 29 13.5 NE 24 33 13 18 1013.6 1012.6 0.0
13/01:30pm 36.1 33.2 15.2 28 13.2 NNE 24 37 13 20 1014.3 1013.2 0.0
13/01:00pm 35.7 31.8 14.4 28 13.3 NNE 28 39 15 21 1014.6 1013.5 0.0
13/12:30pm 35.2 31.9 13.9 27 13.2 NNE 24 35 13 19 1014.9 1013.8 0.0
13/12:00pm 34.0 31.1 14.0 30 12.3 NNE 22 41 12 22 1015.1 1014.0 0.0
13/11:30am 34.1 31.0 14.6 31 12.1 NE 24 35 13 19 1015.2 1014.1 0.0
13/11:00am 32.6 29.4 14.2 32 11.3 NE 24 33 13 18 1015.2 1014.1 0.0
13/10:30am 31.7 28.2 14.4 35 10.6 NE 26 37 14 20 1015.3 1014.2 0.0

Other Formats:

Comma delimited format used in spreadsheet applications
http://www.bom.gov.au/fwo/IDN60801/IDN60801.94910.axf

JavaScript Object Notation format (JSON) in row-major order
http://www.bom.gov.au/fwo/IDN60801/IDN60801.94910.json